Ambridge, Pennsylvania
Current Conditions -  °F | °C
As of 2:51 PM on Friday 31 Oct 2014 (Local Time) from KPIT Reporting Station
Light Rain Light Rain  
Wind Chill: 40°   Ceiling: 2100
Heat Index: 43°   Visibility: 10mi
Dew Point: 38°   Wind: 5mph
Humidity: 82%   Direction: 270°W
Pressure: 29.87"   Gusts: NA
Location:  40.59°N, 80.23°W
Report Text: KPIT 311851Z 27004KT 10SM -RA FEW012 BKN021 OVC035 06/03 A2987 RMK AO2 SLP127 P0002 T00610033
Loading
Personal Weather Stations






























Interactive Weather Map
Tropical Storm Tracking
New forecast layout! Learn more

10-Day Weather Forecast

Advertisements
Track Severe Weather on mobile